Time;durP1;ratioP1;P1;durP2;ratioP2;P2;SDS_P1;SDS_P2;PMS_P1;PMS_P2;Temp;Humidity;BMP_temperature;BMP_pressure;BME280_temperature;BME280_humidity;BME280_pressure;Samples;Min_cycle;Max_cycle;Signal;HPM_P1;HPM_P2
2023/10/23 00:06:15;;;;;;;26.30;14.90;;;;;;;13.62;100.00;99907.64;671888;1260;139719;-80
2023/10/23 00:21:24;;;;;;;29.60;19.20;;;;;;;13.16;100.00;99922.52;671581;1263;139303;-80
2023/10/23 00:36:28;;;;;;;37.80;21.70;;;;;;;13.00;100.00;99937.86;669907;1264;139116;-79
2023/10/23 00:51:34;;;;;;;35.40;21.30;;;;;;;12.94;100.00;99941.43;675453;1263;139920;-78
2023/10/23 01:06:38;;;;;;;25.30;17.10;;;;;;;12.82;100.00;99944.22;669463;1263;139556;-78
2023/10/23 01:21:41;;;;;;;30.80;17.70;;;;;;;12.74;100.00;99955.56;668434;1263;139508;-78
2023/10/23 01:36:45;;;;;;;24.80;16.70;;;;;;;12.72;100.00;99971.90;668123;1273;139822;-78
2023/10/23 01:51:49;;;;;;;25.70;16.90;;;;;;;12.71;100.00;99981.01;668167;1264;140295;-79
2023/10/23 02:06:52;;;;;;;30.60;18.40;;;;;;;12.64;100.00;99998.67;667915;1261;139521;-78
2023/10/23 02:21:56;;;;;;;24.90;16.60;;;;;;;12.57;100.00;100013.66;668206;1272;139428;-78
2023/10/23 02:36:59;;;;;;;22.50;13.80;;;;;;;12.34;100.00;100020.95;668137;1273;190344;-78
2023/10/23 02:52:03;;;;;;;23.90;14.10;;;;;;;12.17;100.00;100028.85;668612;1264;139648;-78
2023/10/23 03:07:07;;;;;;;26.60;15.80;;;;;;;11.94;100.00;100035.22;668383;1260;139932;-78
2023/10/23 03:22:12;;;;;;;25.30;14.90;;;;;;;11.64;100.00;100040.91;668547;1263;139413;-78
2023/10/23 03:37:16;;;;;;;23.80;14.80;;;;;;;11.63;100.00;100050.82;668881;1259;140481;-78
2023/10/23 03:52:19;;;;;;;26.90;16.30;;;;;;;11.71;100.00;100055.99;668793;1265;139588;-78
2023/10/23 04:07:23;;;;;;;23.70;14.00;;;;;;;11.79;100.00;100063.66;668907;1262;139730;-78
2023/10/23 04:22:26;;;;;;;28.50;15.60;;;;;;;11.80;100.00;100073.30;668739;1262;139738;-78
2023/10/23 04:37:30;;;;;;;26.90;16.40;;;;;;;11.78;100.00;100081.98;669328;1260;139560;-79
2023/10/23 04:52:34;;;;;;;25.10;15.90;;;;;;;11.70;100.00;100091.84;669183;1262;139994;-78
2023/10/23 05:07:37;;;;;;;31.80;18.70;;;;;;;11.68;100.00;100104.50;668978;1262;139561;-78
2023/10/23 05:22:41;;;;;;;38.80;22.60;;;;;;;11.49;100.00;100124.45;668945;1263;139939;-78
2023/10/23 05:37:44;;;;;;;33.50;18.30;;;;;;;11.38;100.00;100137.64;669571;1259;140632;-78
2023/10/23 05:52:48;;;;;;;34.70;19.60;;;;;;;11.33;100.00;100156.41;668800;1259;140208;-78
2023/10/23 06:07:52;;;;;;;57.70;28.00;;;;;;;11.25;100.00;100199.23;669142;1274;139392;-79
2023/10/23 06:22:58;;;;;;;39.10;21.70;;;;;;;11.32;100.00;100218.02;668866;1259;138842;-80
2023/10/23 06:38:04;;;;;;;38.20;22.60;;;;;;;11.43;100.00;100234.66;668523;1258;139307;-80
2023/10/23 06:53:07;;;;;;;35.40;18.30;;;;;;;11.47;100.00;100229.95;668770;1266;139668;-79
2023/10/23 07:08:11;;;;;;;36.30;19.20;;;;;;;11.64;100.00;100226.73;673223;1264;139735;-80
2023/10/23 07:23:15;;;;;;;35.40;19.90;;;;;;;11.71;100.00;100234.66;673171;1262;139421;-80
2023/10/23 07:38:18;;;;;;;36.40;22.50;;;;;;;12.03;100.00;100250.11;673552;1262;140474;-81
2023/10/23 07:53:21;;;;;;;28.60;18.10;;;;;;;13.77;100.00;100257.61;676208;1262;140774;-82
2023/10/23 08:08:24;;;;;;;32.30;16.90;;;;;;;14.30;100.00;100271.15;675410;1262;139726;-82
2023/10/23 08:23:28;;;;;;;47.60;34.40;;;;;;;15.45;100.00;100265.64;675353;1274;139737;-83
2023/10/23 08:38:31;;;;;;;18.60;12.00;;;;;;;18.19;100.00;100281.61;674860;1262;140123;-83
2023/10/23 08:53:42;;;;;;;19.30;11.80;;;;;;;19.67;95.47;100287.34;675456;1262;140905;-84
2023/10/23 09:08:47;;;;;;;14.40;9.50;;;;;;;19.29;89.44;100289.67;675096;1262;139937;-84
2023/10/23 09:24:00;;;;;;;14.00;11.40;;;;;;;19.47;86.92;100298.04;677143;1262;140378;-84
2023/10/23 09:39:04;;;;;;;19.60;14.70;;;;;;;17.15;88.49;100303.33;676114;1262;138976;-85
2023/10/23 09:54:07;;;;;;;18.50;9.20;;;;;;;17.59;93.12;100292.29;677328;1260;139396;-84
2023/10/23 10:09:12;;;;;;;16.80;8.90;;;;;;;18.84;88.26;100283.18;676118;1262;139335;-83
2023/10/23 10:24:18;;;;;;;16.10;8.40;;;;;;;18.38;84.13;100282.77;678045;1265;138824;-84
2023/10/23 10:39:52;;;;;;;14.90;8.20;;;;;;;17.84;83.37;100282.86;678766;1265;139416;-83
2023/10/23 10:54:59;;;;;;;21.70;11.50;;;;;;;17.13;83.98;100274.86;675301;1265;139545;-82
2023/10/23 11:14:33;;;;;;;27.00;11.70;;;;;;;15.80;90.44;100271.19;654652;1305;545103;-84
2023/10/23 11:29:38;;;;;;;36.00;20.00;;;;;;;15.35;93.93;100267.41;670117;1287;139915;-83
2023/10/23 11:44:42;;;;;;;41.10;28.60;;;;;;;15.69;95.40;100268.55;672791;1276;138739;-83
2023/10/23 11:59:47;;;;;;;37.10;21.80;;;;;;;15.92;96.00;100282.98;667938;1274;138530;-84
2023/10/23 12:14:50;;;;;;;43.90;22.40;;;;;;;16.40;94.09;100282.27;668579;1277;140327;-82
2023/10/23 12:29:58;;;;;;;20.40;13.90;;;;;;;16.66;94.06;100277.77;668412;1280;138689;-84
2023/10/23 12:57:39;;;;;;;28.30;14.70;;;;;;;16.45;89.72;100273.91;658518;1298;545055;-82
2023/10/23 13:12:43;;;;;;;18.50;10.70;;;;;;;16.24;90.30;100276.25;672356;1275;140144;-82
2023/10/23 13:27:46;;;;;;;69.30;46.60;;;;;;;15.88;92.38;100286.47;669469;1275;138572;-84
2023/10/23 13:42:50;;;;;;;17.20;12.80;;;;;;;15.68;94.13;100286.77;670770;1274;138885;-83
2023/10/23 13:57:53;;;;;;;18.40;12.90;;;;;;;15.56;95.31;100282.33;673226;1275;138790;-81
2023/10/23 14:12:56;;;;;;;25.60;15.20;;;;;;;15.49;96.22;100284.98;672645;1276;139302;-83
2023/10/23 14:28:00;;;;;;;141.10;79.80;;;;;;;15.54;97.09;100287.12;672631;1274;138890;-87
2023/10/23 14:43:04;;;;;;;77.60;37.90;;;;;;;15.41;98.03;100283.40;673020;1276;139701;-89
2023/10/23 14:58:09;;;;;;;75.10;38.20;;;;;;;15.26;99.16;100285.56;673263;1283;137734;-83
2023/10/23 15:13:12;;;;;;;72.70;40.60;;;;;;;15.12;99.86;100279.13;676032;1286;138862;-84
2023/10/23 15:28:15;;;;;;;111.70;56.10;;;;;;;15.10;100.00;100276.11;678870;1276;138313;-84
2023/10/23 15:43:20;;;;;;;524.50;205.20;;;;;;;14.66;100.00;100273.38;677123;1275;139346;-85
2023/10/23 15:58:24;;;;;;;161.60;74.50;;;;;;;14.00;100.00;100280.23;675458;1272;138742;-85
2023/10/23 16:13:29;;;;;;;75.30;39.30;;;;;;;13.56;100.00;100288.02;675793;1275;139931;-84
2023/10/23 16:28:42;;;;;;;135.00;70.40;;;;;;;12.83;100.00;100285.60;675894;1274;138510;-83
2023/10/23 16:43:45;;;;;;;274.70;112.70;;;;;;;12.37;100.00;100291.61;673202;1272;140210;-85
2023/10/23 16:58:48;;;;;;;270.20;94.90;;;;;;;12.23;100.00;100309.09;672360;1273;139625;-85
2023/10/23 17:13:52;;;;;;;313.80;117.80;;;;;;;12.19;100.00;100308.42;675256;1274;139206;-85
2023/10/23 17:28:56;;;;;;;202.80;119.30;;;;;;;11.99;100.00;100307.29;676508;1273;22643;-85
2023/10/23 17:44:01;;;;;;;118.50;51.10;;;;;;;11.68;100.00;100286.45;674030;1276;139333;-84
2023/10/23 17:59:06;;;;;;;115.00;55.10;;;;;;;11.36;100.00;100286.56;673049;1276;138197;-87
2023/10/23 18:14:12;;;;;;;75.40;40.60;;;;;;;10.94;100.00;100287.38;673128;1273;139964;-85
2023/10/23 18:29:15;;;;;;;73.20;40.40;;;;;;;10.50;100.00;100304.92;675513;1276;139075;-84
2023/10/23 18:44:19;;;;;;;134.20;53.80;;;;;;;9.96;100.00;100313.13;677731;1273;138050;-84
2023/10/23 18:59:24;;;;;;;116.10;39.60;;;;;;;10.07;100.00;100319.52;674538;1276;139303;-85
2023/10/23 19:14:27;;;;;;;251.80;111.00;;;;;;;9.81;100.00;100313.22;674967;1273;138175;-85
2023/10/23 19:29:33;;;;;;;147.30;67.70;;;;;;;9.55;100.00;100317.64;672143;1276;140109;-85
2023/10/23 19:44:37;;;;;;;74.20;38.70;;;;;;;9.44;100.00;100320.45;671781;1272;138785;-84
2023/10/23 19:59:42;;;;;;;83.80;31.70;;;;;;;9.41;100.00;100321.88;670692;1279;138684;-85
2023/10/23 20:14:46;;;;;;;94.60;39.90;;;;;;;9.18;100.00;100317.16;674464;1276;138981;-85
2023/10/23 20:29:49;;;;;;;349.80;115.80;;;;;;;9.03;100.00;100307.21;674215;1276;138876;-84
2023/10/23 20:44:54;;;;;;;132.20;53.00;;;;;;;8.72;100.00;100304.66;669992;1276;139773;-86
2023/10/23 20:59:58;;;;;;;156.20;66.00;;;;;;;8.37;100.00;100296.02;675991;1262;138927;-85
2023/10/23 21:15:01;;;;;;;105.40;44.30;;;;;;;8.09;100.00;100295.20;675422;1265;139463;-84
2023/10/23 21:30:06;;;;;;;101.20;40.20;;;;;;;7.89;100.00;100294.15;675451;1263;139926;-85
2023/10/23 21:45:10;;;;;;;64.80;32.10;;;;;;;7.68;100.00;100293.98;675444;1262;139575;-86
2023/10/23 22:00:26;;;;;;;70.30;32.30;;;;;;;7.48;100.00;100284.02;675955;1259;139396;-85
2023/10/23 22:15:30;;;;;;;88.30;33.30;;;;;;;7.30;100.00;100286.85;676980;1264;139094;-85
2023/10/23 22:30:34;;;;;;;75.20;34.30;;;;;;;7.24;100.00;100294.30;675964;1260;139026;-84
2023/10/23 22:45:38;;;;;;;47.50;25.60;;;;;;;7.05;100.00;100296.34;675657;1259;138718;-85
2023/10/23 23:01:01;;;;;;;41.20;23.40;;;;;;;6.77;100.00;100309.52;675008;1259;139619;-84
2023/10/23 23:16:05;;;;;;;56.50;26.40;;;;;;;6.52;100.00;100312.14;675586;1263;140217;-84
2023/10/23 23:31:08;;;;;;;139.90;53.90;;;;;;;6.52;100.00;100310.92;675261;1263;139281;-84
2023/10/23 23:46:13;;;;;;;286.20;104.30;;;;;;;6.48;100.00;100302.86;674854;1265;140279;-85
